<?xml version="1.0" encoding="UTF-8" standalone="no" ?>
<gpx xmlns="http://www.topografix.com/GPX/1/1" xmlns:xsi="http://www.w3.org/2001/XMLSchema-instance" xsi:schemaLocation="http://www.topografix.com/GPX/1/1 http://www.topografix.com/GPX/1/1/gpx.xsd" version="1.1" creator="VisuGPX - https://www.visugpx.com">
  <metadata>
    <name>De la statue Galatée à l'église Notre-Dame de Deuil</name>
  </metadata>
  <trk>
    <name><![CDATA[De la statue Galatée à l'église Notre-Dame de Deuil]]></name>
    <extensions>
      <line xmlns="http://www.topografix.com/GPX/gpx_style/0/2">
        <color>0000FF</color>
        <width>4</width>
      </line>
    </extensions>
    <trkseg>
      <trkpt lat="48.9612" lon="2.32573">
        <ele>82</ele>
        <time>2025-11-29T14:09:59.000Z</time>
      </trkpt>
      <trkpt lat="48.96121" lon="2.32574">
        <ele>82</ele>
        <time>2025-11-29T14:10:02.000Z</time>
      </trkpt>
      <trkpt lat="48.96128" lon="2.32578">
        <ele>82</ele>
        <time>2025-11-29T14:10:23.000Z</time>
      </trkpt>
      <trkpt lat="48.96136" lon="2.32586">
        <ele>82</ele>
        <time>2025-11-29T14:10:29.000Z</time>
      </trkpt>
      <trkpt lat="48.96144" lon="2.32587">
        <ele>83</ele>
        <time>2025-11-29T14:10:35.000Z</time>
      </trkpt>
      <trkpt lat="48.96152" lon="2.32578">
        <ele>83</ele>
        <time>2025-11-29T14:10:41.000Z</time>
      </trkpt>
      <trkpt lat="48.96161" lon="2.32577">
        <ele>84</ele>
        <time>2025-11-29T14:10:47.000Z</time>
      </trkpt>
      <trkpt lat="48.96171" lon="2.32582">
        <ele>84</ele>
        <time>2025-11-29T14:10:53.000Z</time>
      </trkpt>
      <trkpt lat="48.96182" lon="2.3259">
        <ele>84</ele>
        <time>2025-11-29T14:10:59.000Z</time>
      </trkpt>
      <trkpt lat="48.96194" lon="2.32596">
        <ele>84</ele>
        <time>2025-11-29T14:11:05.000Z</time>
      </trkpt>
      <trkpt lat="48.9621" lon="2.32599">
        <ele>84</ele>
        <time>2025-11-29T14:11:08.000Z</time>
      </trkpt>
      <trkpt lat="48.96221" lon="2.3261">
        <ele>84</ele>
        <time>2025-11-29T14:11:14.000Z</time>
      </trkpt>
      <trkpt lat="48.96229" lon="2.32619">
        <ele>84</ele>
        <time>2025-11-29T14:11:20.000Z</time>
      </trkpt>
      <trkpt lat="48.9624" lon="2.32631">
        <ele>84</ele>
        <time>2025-11-29T14:11:26.000Z</time>
      </trkpt>
      <trkpt lat="48.96249" lon="2.3264">
        <ele>84</ele>
        <time>2025-11-29T14:11:32.000Z</time>
      </trkpt>
      <trkpt lat="48.96258" lon="2.32645">
        <ele>84</ele>
        <time>2025-11-29T14:11:41.000Z</time>
      </trkpt>
      <trkpt lat="48.96266" lon="2.32654">
        <ele>84</ele>
        <time>2025-11-29T14:11:47.000Z</time>
      </trkpt>
      <trkpt lat="48.96274" lon="2.32661">
        <ele>85</ele>
        <time>2025-11-29T14:11:53.000Z</time>
      </trkpt>
      <trkpt lat="48.96282" lon="2.3267">
        <ele>85</ele>
        <time>2025-11-29T14:11:59.000Z</time>
      </trkpt>
      <trkpt lat="48.96291" lon="2.32679">
        <ele>86</ele>
        <time>2025-11-29T14:12:05.000Z</time>
      </trkpt>
      <trkpt lat="48.96302" lon="2.32684">
        <ele>86</ele>
        <time>2025-11-29T14:12:14.000Z</time>
      </trkpt>
      <trkpt lat="48.96313" lon="2.32692">
        <ele>85</ele>
        <time>2025-11-29T14:12:20.000Z</time>
      </trkpt>
      <trkpt lat="48.96323" lon="2.32702">
        <ele>86</ele>
        <time>2025-11-29T14:12:26.000Z</time>
      </trkpt>
      <trkpt lat="48.96332" lon="2.32711">
        <ele>87</ele>
        <time>2025-11-29T14:12:32.000Z</time>
      </trkpt>
      <trkpt lat="48.96339" lon="2.32722">
        <ele>87</ele>
        <time>2025-11-29T14:12:41.000Z</time>
      </trkpt>
      <trkpt lat="48.96351" lon="2.3273">
        <ele>90</ele>
        <time>2025-11-29T14:12:47.000Z</time>
      </trkpt>
      <trkpt lat="48.96364" lon="2.3274">
        <ele>91</ele>
        <time>2025-11-29T14:12:53.000Z</time>
      </trkpt>
      <trkpt lat="48.96375" lon="2.3275">
        <ele>92</ele>
        <time>2025-11-29T14:12:59.000Z</time>
      </trkpt>
      <trkpt lat="48.96385" lon="2.32761">
        <ele>93</ele>
        <time>2025-11-29T14:13:05.000Z</time>
      </trkpt>
      <trkpt lat="48.96396" lon="2.32774">
        <ele>91</ele>
        <time>2025-11-29T14:13:11.000Z</time>
      </trkpt>
      <trkpt lat="48.96408" lon="2.32788">
        <ele>89</ele>
        <time>2025-11-29T14:13:17.000Z</time>
      </trkpt>
      <trkpt lat="48.9642" lon="2.32801">
        <ele>89</ele>
        <time>2025-11-29T14:13:23.000Z</time>
      </trkpt>
      <trkpt lat="48.9643" lon="2.32812">
        <ele>88</ele>
        <time>2025-11-29T14:13:29.000Z</time>
      </trkpt>
      <trkpt lat="48.96442" lon="2.32821">
        <ele>88</ele>
        <time>2025-11-29T14:13:35.000Z</time>
      </trkpt>
      <trkpt lat="48.96452" lon="2.32831">
        <ele>87</ele>
        <time>2025-11-29T14:13:41.000Z</time>
      </trkpt>
      <trkpt lat="48.96464" lon="2.3284">
        <ele>87</ele>
        <time>2025-11-29T14:13:47.000Z</time>
      </trkpt>
      <trkpt lat="48.96474" lon="2.3285">
        <ele>86</ele>
        <time>2025-11-29T14:13:53.000Z</time>
      </trkpt>
      <trkpt lat="48.96482" lon="2.3286">
        <ele>86</ele>
        <time>2025-11-29T14:13:59.000Z</time>
      </trkpt>
      <trkpt lat="48.96491" lon="2.32868">
        <ele>87</ele>
        <time>2025-11-29T14:14:05.000Z</time>
      </trkpt>
      <trkpt lat="48.96503" lon="2.3288">
        <ele>87</ele>
        <time>2025-11-29T14:14:14.000Z</time>
      </trkpt>
      <trkpt lat="48.96516" lon="2.32894">
        <ele>87</ele>
        <time>2025-11-29T14:14:20.000Z</time>
      </trkpt>
      <trkpt lat="48.96527" lon="2.329">
        <ele>87</ele>
        <time>2025-11-29T14:14:26.000Z</time>
      </trkpt>
      <trkpt lat="48.96538" lon="2.32905">
        <ele>86</ele>
        <time>2025-11-29T14:14:35.000Z</time>
      </trkpt>
      <trkpt lat="48.96544" lon="2.32918">
        <ele>85</ele>
        <time>2025-11-29T14:14:41.000Z</time>
      </trkpt>
      <trkpt lat="48.96553" lon="2.32925">
        <ele>85</ele>
        <time>2025-11-29T14:14:47.000Z</time>
      </trkpt>
      <trkpt lat="48.96567" lon="2.32931">
        <ele>85</ele>
        <time>2025-11-29T14:14:53.000Z</time>
      </trkpt>
      <trkpt lat="48.96575" lon="2.32947">
        <ele>85</ele>
        <time>2025-11-29T14:14:59.000Z</time>
      </trkpt>
      <trkpt lat="48.96578" lon="2.32962">
        <ele>85</ele>
        <time>2025-11-29T14:15:05.000Z</time>
      </trkpt>
      <trkpt lat="48.9658" lon="2.32979">
        <ele>85</ele>
        <time>2025-11-29T14:15:20.000Z</time>
      </trkpt>
      <trkpt lat="48.96584" lon="2.32995">
        <ele>85</ele>
        <time>2025-11-29T14:15:26.000Z</time>
      </trkpt>
      <trkpt lat="48.9659" lon="2.33005">
        <ele>85</ele>
        <time>2025-11-29T14:15:32.000Z</time>
      </trkpt>
      <trkpt lat="48.96601" lon="2.33011">
        <ele>85</ele>
        <time>2025-11-29T14:15:38.000Z</time>
      </trkpt>
      <trkpt lat="48.96614" lon="2.33012">
        <ele>85</ele>
        <time>2025-11-29T14:15:44.000Z</time>
      </trkpt>
      <trkpt lat="48.96626" lon="2.33006">
        <ele>85</ele>
        <time>2025-11-29T14:15:50.000Z</time>
      </trkpt>
      <trkpt lat="48.96637" lon="2.32995">
        <ele>85</ele>
        <time>2025-11-29T14:15:56.000Z</time>
      </trkpt>
      <trkpt lat="48.96643" lon="2.3298">
        <ele>85</ele>
        <time>2025-11-29T14:16:02.000Z</time>
      </trkpt>
      <trkpt lat="48.96648" lon="2.32965">
        <ele>85</ele>
        <time>2025-11-29T14:16:08.000Z</time>
      </trkpt>
      <trkpt lat="48.96652" lon="2.32952">
        <ele>85</ele>
        <time>2025-11-29T14:16:14.000Z</time>
      </trkpt>
      <trkpt lat="48.96654" lon="2.32936">
        <ele>85</ele>
        <time>2025-11-29T14:16:23.000Z</time>
      </trkpt>
      <trkpt lat="48.96658" lon="2.32922">
        <ele>85</ele>
        <time>2025-11-29T14:16:29.000Z</time>
      </trkpt>
      <trkpt lat="48.96666" lon="2.32905">
        <ele>85</ele>
        <time>2025-11-29T14:16:35.000Z</time>
      </trkpt>
      <trkpt lat="48.96676" lon="2.3289">
        <ele>85</ele>
        <time>2025-11-29T14:16:41.000Z</time>
      </trkpt>
      <trkpt lat="48.96682" lon="2.32878">
        <ele>85</ele>
        <time>2025-11-29T14:16:47.000Z</time>
      </trkpt>
      <trkpt lat="48.96687" lon="2.32865">
        <ele>85</ele>
        <time>2025-11-29T14:16:53.000Z</time>
      </trkpt>
      <trkpt lat="48.96695" lon="2.32853">
        <ele>85</ele>
        <time>2025-11-29T14:17:02.000Z</time>
      </trkpt>
      <trkpt lat="48.96707" lon="2.3285">
        <ele>85</ele>
        <time>2025-11-29T14:17:11.000Z</time>
      </trkpt>
      <trkpt lat="48.96714" lon="2.32854">
        <ele>85</ele>
        <time>2025-11-29T14:17:20.000Z</time>
      </trkpt>
      <trkpt lat="48.96709" lon="2.32861">
        <ele>85</ele>
        <time>2025-11-29T14:17:32.000Z</time>
      </trkpt>
      <trkpt lat="48.96717" lon="2.32881">
        <ele>85</ele>
        <time>2025-11-29T14:17:41.000Z</time>
      </trkpt>
      <trkpt lat="48.96729" lon="2.32881">
        <ele>85</ele>
        <time>2025-11-29T14:17:47.000Z</time>
      </trkpt>
      <trkpt lat="48.96744" lon="2.32876">
        <ele>85</ele>
        <time>2025-11-29T14:17:53.000Z</time>
      </trkpt>
      <trkpt lat="48.96753" lon="2.32884">
        <ele>85</ele>
        <time>2025-11-29T14:18:02.000Z</time>
      </trkpt>
      <trkpt lat="48.96761" lon="2.32887">
        <ele>85</ele>
        <time>2025-11-29T14:18:14.000Z</time>
      </trkpt>
      <trkpt lat="48.96754" lon="2.32873">
        <ele>85</ele>
        <time>2025-11-29T14:18:32.000Z</time>
      </trkpt>
      <trkpt lat="48.96749" lon="2.32854">
        <ele>85</ele>
        <time>2025-11-29T14:18:38.000Z</time>
      </trkpt>
      <trkpt lat="48.96747" lon="2.32835">
        <ele>85</ele>
        <time>2025-11-29T14:18:44.000Z</time>
      </trkpt>
      <trkpt lat="48.96748" lon="2.32819">
        <ele>85</ele>
        <time>2025-11-29T14:18:47.000Z</time>
      </trkpt>
      <trkpt lat="48.96752" lon="2.32797">
        <ele>85</ele>
        <time>2025-11-29T14:18:53.000Z</time>
      </trkpt>
      <trkpt lat="48.96756" lon="2.32777">
        <ele>86</ele>
        <time>2025-11-29T14:18:59.000Z</time>
      </trkpt>
      <trkpt lat="48.96761" lon="2.32754">
        <ele>87</ele>
        <time>2025-11-29T14:19:05.000Z</time>
      </trkpt>
      <trkpt lat="48.96764" lon="2.32732">
        <ele>87</ele>
        <time>2025-11-29T14:19:11.000Z</time>
      </trkpt>
      <trkpt lat="48.96766" lon="2.32714">
        <ele>87</ele>
        <time>2025-11-29T14:19:17.000Z</time>
      </trkpt>
      <trkpt lat="48.9677" lon="2.32693">
        <ele>86</ele>
        <time>2025-11-29T14:19:23.000Z</time>
      </trkpt>
      <trkpt lat="48.96776" lon="2.32671">
        <ele>86</ele>
        <time>2025-11-29T14:19:29.000Z</time>
      </trkpt>
      <trkpt lat="48.96779" lon="2.32649">
        <ele>85</ele>
        <time>2025-11-29T14:19:35.000Z</time>
      </trkpt>
      <trkpt lat="48.96782" lon="2.32626">
        <ele>85</ele>
        <time>2025-11-29T14:19:41.000Z</time>
      </trkpt>
      <trkpt lat="48.96786" lon="2.32605">
        <ele>85</ele>
        <time>2025-11-29T14:19:47.000Z</time>
      </trkpt>
      <trkpt lat="48.96789" lon="2.32585">
        <ele>85</ele>
        <time>2025-11-29T14:19:53.000Z</time>
      </trkpt>
      <trkpt lat="48.96792" lon="2.32564">
        <ele>84</ele>
        <time>2025-11-29T14:19:59.000Z</time>
      </trkpt>
      <trkpt lat="48.96798" lon="2.32541">
        <ele>84</ele>
        <time>2025-11-29T14:20:05.000Z</time>
      </trkpt>
      <trkpt lat="48.96803" lon="2.32517">
        <ele>84</ele>
        <time>2025-11-29T14:20:11.000Z</time>
      </trkpt>
      <trkpt lat="48.96806" lon="2.32497">
        <ele>84</ele>
        <time>2025-11-29T14:20:17.000Z</time>
      </trkpt>
      <trkpt lat="48.96808" lon="2.32477">
        <ele>84</ele>
        <time>2025-11-29T14:20:23.000Z</time>
      </trkpt>
      <trkpt lat="48.96813" lon="2.32462">
        <ele>84</ele>
        <time>2025-11-29T14:20:29.000Z</time>
      </trkpt>
      <trkpt lat="48.96825" lon="2.3246">
        <ele>84</ele>
        <time>2025-11-29T14:20:38.000Z</time>
      </trkpt>
      <trkpt lat="48.96839" lon="2.32462">
        <ele>84</ele>
        <time>2025-11-29T14:20:44.000Z</time>
      </trkpt>
      <trkpt lat="48.96852" lon="2.32467">
        <ele>84</ele>
        <time>2025-11-29T14:20:50.000Z</time>
      </trkpt>
      <trkpt lat="48.96865" lon="2.32474">
        <ele>85</ele>
        <time>2025-11-29T14:20:56.000Z</time>
      </trkpt>
      <trkpt lat="48.96878" lon="2.32487">
        <ele>85</ele>
        <time>2025-11-29T14:21:02.000Z</time>
      </trkpt>
      <trkpt lat="48.96889" lon="2.32493">
        <ele>85</ele>
        <time>2025-11-29T14:21:08.000Z</time>
      </trkpt>
      <trkpt lat="48.96901" lon="2.32494">
        <ele>85</ele>
        <time>2025-11-29T14:21:14.000Z</time>
      </trkpt>
      <trkpt lat="48.96914" lon="2.3249">
        <ele>86</ele>
        <time>2025-11-29T14:21:20.000Z</time>
      </trkpt>
      <trkpt lat="48.96926" lon="2.32491">
        <ele>86</ele>
        <time>2025-11-29T14:21:26.000Z</time>
      </trkpt>
      <trkpt lat="48.96939" lon="2.32495">
        <ele>86</ele>
        <time>2025-11-29T14:21:32.000Z</time>
      </trkpt>
      <trkpt lat="48.96948" lon="2.32501">
        <ele>87</ele>
        <time>2025-11-29T14:21:35.000Z</time>
      </trkpt>
      <trkpt lat="48.96962" lon="2.3251">
        <ele>87</ele>
        <time>2025-11-29T14:21:41.000Z</time>
      </trkpt>
      <trkpt lat="48.96978" lon="2.32512">
        <ele>87</ele>
        <time>2025-11-29T14:21:47.000Z</time>
      </trkpt>
      <trkpt lat="48.96994" lon="2.32516">
        <ele>87</ele>
        <time>2025-11-29T14:21:53.000Z</time>
      </trkpt>
      <trkpt lat="48.97007" lon="2.32519">
        <ele>87</ele>
        <time>2025-11-29T14:21:59.000Z</time>
      </trkpt>
      <trkpt lat="48.97021" lon="2.32526">
        <ele>88</ele>
        <time>2025-11-29T14:22:05.000Z</time>
      </trkpt>
      <trkpt lat="48.97034" lon="2.32531">
        <ele>88</ele>
        <time>2025-11-29T14:22:11.000Z</time>
      </trkpt>
      <trkpt lat="48.97049" lon="2.32536">
        <ele>89</ele>
        <time>2025-11-29T14:22:17.000Z</time>
      </trkpt>
      <trkpt lat="48.97061" lon="2.32537">
        <ele>89</ele>
        <time>2025-11-29T14:22:23.000Z</time>
      </trkpt>
      <trkpt lat="48.97072" lon="2.32539">
        <ele>89</ele>
        <time>2025-11-29T14:22:29.000Z</time>
      </trkpt>
      <trkpt lat="48.97086" lon="2.32543">
        <ele>89</ele>
        <time>2025-11-29T14:22:35.000Z</time>
      </trkpt>
      <trkpt lat="48.971" lon="2.32547">
        <ele>89</ele>
        <time>2025-11-29T14:22:41.000Z</time>
      </trkpt>
      <trkpt lat="48.97114" lon="2.32553">
        <ele>89</ele>
        <time>2025-11-29T14:22:47.000Z</time>
      </trkpt>
      <trkpt lat="48.97129" lon="2.32557">
        <ele>89</ele>
        <time>2025-11-29T14:22:53.000Z</time>
      </trkpt>
      <trkpt lat="48.97143" lon="2.32562">
        <ele>89</ele>
        <time>2025-11-29T14:22:59.000Z</time>
      </trkpt>
      <trkpt lat="48.97158" lon="2.32566">
        <ele>89</ele>
        <time>2025-11-29T14:23:05.000Z</time>
      </trkpt>
      <trkpt lat="48.97171" lon="2.3257">
        <ele>89</ele>
        <time>2025-11-29T14:23:11.000Z</time>
      </trkpt>
      <trkpt lat="48.97184" lon="2.32573">
        <ele>89</ele>
        <time>2025-11-29T14:23:23.000Z</time>
      </trkpt>
      <trkpt lat="48.97193" lon="2.32579">
        <ele>89</ele>
        <time>2025-11-29T14:23:29.000Z</time>
      </trkpt>
      <trkpt lat="48.97203" lon="2.32584">
        <ele>89</ele>
        <time>2025-11-29T14:23:35.000Z</time>
      </trkpt>
      <trkpt lat="48.97215" lon="2.3259">
        <ele>89</ele>
        <time>2025-11-29T14:23:44.000Z</time>
      </trkpt>
      <trkpt lat="48.97227" lon="2.32598">
        <ele>89</ele>
        <time>2025-11-29T14:23:50.000Z</time>
      </trkpt>
      <trkpt lat="48.97239" lon="2.32605">
        <ele>89</ele>
        <time>2025-11-29T14:23:56.000Z</time>
      </trkpt>
      <trkpt lat="48.97252" lon="2.32613">
        <ele>90</ele>
        <time>2025-11-29T14:24:02.000Z</time>
      </trkpt>
      <trkpt lat="48.97265" lon="2.3262">
        <ele>90</ele>
        <time>2025-11-29T14:24:08.000Z</time>
      </trkpt>
      <trkpt lat="48.97277" lon="2.32626">
        <ele>90</ele>
        <time>2025-11-29T14:24:14.000Z</time>
      </trkpt>
      <trkpt lat="48.9729" lon="2.32632">
        <ele>91</ele>
        <time>2025-11-29T14:24:20.000Z</time>
      </trkpt>
      <trkpt lat="48.97302" lon="2.32636">
        <ele>91</ele>
        <time>2025-11-29T14:24:26.000Z</time>
      </trkpt>
      <trkpt lat="48.97312" lon="2.32638">
        <ele>91</ele>
        <time>2025-11-29T14:24:35.000Z</time>
      </trkpt>
      <trkpt lat="48.97314" lon="2.32652">
        <ele>91</ele>
        <time>2025-11-29T14:24:44.000Z</time>
      </trkpt>
      <trkpt lat="48.97322" lon="2.32652">
        <ele>91</ele>
        <time>2025-11-29T14:24:56.000Z</time>
      </trkpt>
      <trkpt lat="48.97334" lon="2.32654">
        <ele>91</ele>
        <time>2025-11-29T14:25:02.000Z</time>
      </trkpt>
      <trkpt lat="48.97344" lon="2.32661">
        <ele>91</ele>
        <time>2025-11-29T14:25:08.000Z</time>
      </trkpt>
      <trkpt lat="48.97355" lon="2.32671">
        <ele>92</ele>
        <time>2025-11-29T14:25:14.000Z</time>
      </trkpt>
      <trkpt lat="48.97366" lon="2.32678">
        <ele>92</ele>
        <time>2025-11-29T14:25:20.000Z</time>
      </trkpt>
      <trkpt lat="48.9738" lon="2.32681">
        <ele>92</ele>
        <time>2025-11-29T14:25:26.000Z</time>
      </trkpt>
      <trkpt lat="48.97394" lon="2.32683">
        <ele>93</ele>
        <time>2025-11-29T14:25:32.000Z</time>
      </trkpt>
      <trkpt lat="48.97405" lon="2.32683">
        <ele>93</ele>
        <time>2025-11-29T14:25:38.000Z</time>
      </trkpt>
      <trkpt lat="48.97412" lon="2.32675">
        <ele>93</ele>
        <time>2025-11-29T14:25:44.000Z</time>
      </trkpt>
      <trkpt lat="48.97421" lon="2.32667">
        <ele>93</ele>
        <time>2025-11-29T14:25:53.000Z</time>
      </trkpt>
      <trkpt lat="48.97431" lon="2.32666">
        <ele>94</ele>
        <time>2025-11-29T14:25:59.000Z</time>
      </trkpt>
      <trkpt lat="48.97442" lon="2.32669">
        <ele>94</ele>
        <time>2025-11-29T14:26:08.000Z</time>
      </trkpt>
      <trkpt lat="48.97447" lon="2.32684">
        <ele>95</ele>
        <time>2025-11-29T14:26:14.000Z</time>
      </trkpt>
      <trkpt lat="48.97451" lon="2.32711">
        <ele>96</ele>
        <time>2025-11-29T14:26:23.000Z</time>
      </trkpt>
      <trkpt lat="48.9745" lon="2.32727">
        <ele>97</ele>
        <time>2025-11-29T14:26:29.000Z</time>
      </trkpt>
      <trkpt lat="48.97456" lon="2.32739">
        <ele>97</ele>
        <time>2025-11-29T14:26:44.000Z</time>
      </trkpt>
      <trkpt lat="48.97465" lon="2.3274">
        <ele>98</ele>
        <time>2025-11-29T14:26:56.000Z</time>
      </trkpt>
      <trkpt lat="48.97477" lon="2.32739">
        <ele>98</ele>
        <time>2025-11-29T14:27:08.000Z</time>
      </trkpt>
      <trkpt lat="48.97487" lon="2.32741">
        <ele>97</ele>
        <time>2025-11-29T14:27:17.000Z</time>
      </trkpt>
      <trkpt lat="48.97499" lon="2.3274">
        <ele>97</ele>
        <time>2025-11-29T14:27:26.000Z</time>
      </trkpt>
      <trkpt lat="48.97509" lon="2.32739">
        <ele>97</ele>
        <time>2025-11-29T14:27:35.000Z</time>
      </trkpt>
      <trkpt lat="48.9752" lon="2.32737">
        <ele>97</ele>
        <time>2025-11-29T14:27:41.000Z</time>
      </trkpt>
      <trkpt lat="48.97531" lon="2.32734">
        <ele>97</ele>
        <time>2025-11-29T14:27:47.000Z</time>
      </trkpt>
      <trkpt lat="48.97544" lon="2.32731">
        <ele>97</ele>
        <time>2025-11-29T14:27:53.000Z</time>
      </trkpt>
      <trkpt lat="48.97558" lon="2.32724">
        <ele>97</ele>
        <time>2025-11-29T14:27:59.000Z</time>
      </trkpt>
      <trkpt lat="48.97573" lon="2.32718">
        <ele>97</ele>
        <time>2025-11-29T14:28:05.000Z</time>
      </trkpt>
      <trkpt lat="48.97583" lon="2.32715">
        <ele>97</ele>
        <time>2025-11-29T14:28:14.000Z</time>
      </trkpt>
      <trkpt lat="48.97586" lon="2.327">
        <ele>97</ele>
        <time>2025-11-29T14:28:26.000Z</time>
      </trkpt>
      <trkpt lat="48.97587" lon="2.32685">
        <ele>97</ele>
        <time>2025-11-29T14:28:41.000Z</time>
      </trkpt>
      <trkpt lat="48.9759" lon="2.3267">
        <ele>97</ele>
        <time>2025-11-29T14:28:50.000Z</time>
      </trkpt>
    </trkseg>
  </trk>
</gpx>